ワルシャワ の空港の天気 - METARとTAF

ワルシャワ・フレデリック・ショパン空港 ( EPWA / WAW ) - ポーランド ワルシャワ
飛行場実況気象(Metar)
観測時間07/22 02:30 CEST (07/22 00:30 UTC)
風向・風速南南西 1m/s
視程3000m
天気現象地霧 もや
少しの雲 雲底高度 270m
全天の8割程度の雲 雲底高度 790m
気温18℃
湿度94%
気圧1014hPa
METAREPWA 220030Z 21002KT 3000 MIFG BR FEW009 BKN026 18/17 Q1014 TEMPO 1400 BR
過去の天気等 Google飛行場航空写真 Wunderground天気予報

過去48時間のMETAR

飛行場予報(TAF)
発表時間: 7/22 01:30 CEST (7/21 23:30 UTC)
予報対象時間: 22日2時 CEST ~ 23日2時 CEST
風向・風速不定 2m/s
視程3,500m
天気現象もや
全天の8割程度の雲 雲底高度 430m
22日2時 CEST ~ 22日9時 CEST に一時的に
視程1,400m
天気現象もや
全天の8割程度の雲 雲底高度 270m
22日2時 CEST ~ 22日8時 CEST に 確率 40% で一時的に
視程500m
天気現象
全天の8割程度の雲 雲底高度 60m
22日9時 CEST ~ 22日12時 CEST に徐々に
全天の8割程度の雲 雲底高度 1,070m
TAF EPWA 212330Z 2200/2224 VRB03KT 3500 BR BKN014
TEMPO 2200/2207 1400 BR BKN009
PROB40 TEMPO 2200/2206 0500 FG BKN002
BECMG 2207/2210 BKN035